Time;durP1;ratioP1;P1;durP2;ratioP2;P2;SDS_P1;SDS_P2;PMS_P1;PMS_P2;Temp;Humidity;BMP_temperature;BMP_pressure;BME280_temperature;BME280_humidity;BME280_pressure;Samples;Min_cycle;Max_cycle;Signal;HPM_P1;HPM_P2
2022/10/06 00:02:10;;;;;;;4.50;3.63;;;13.90;99.90;;;;;;2613821;54;20153;-73
2022/10/06 00:07:59;;;;;;;3.33;3.03;;;13.90;99.90;;;;;;2614636;54;20516;-73
2022/10/06 00:13:46;;;;;;;3.27;3.07;;;14.00;99.90;;;;;;2614316;54;20247;-73
2022/10/06 00:19:34;;;;;;;4.70;2.73;;;14.10;99.90;;;;;;2614508;54;20150;-75
2022/10/06 00:25:24;;;;;;;6.43;2.60;;;14.10;99.90;;;;;;2614448;54;20226;-74
2022/10/06 00:31:11;;;;;;;3.47;2.33;;;14.10;99.90;;;;;;2614702;54;20394;-73
2022/10/06 00:36:59;;;;;;;4.80;2.63;;;14.20;99.90;;;;;;2614494;54;20422;-72
2022/10/06 00:49:35;;;;;;;3.43;2.20;;;13.90;99.90;;;;;;2613632;54;20454;-74
2022/10/06 00:55:22;;;;;;;5.70;2.70;;;13.90;99.90;;;;;;2615505;54;20396;-74
2022/10/06 01:01:11;;;;;;;3.50;2.30;;;13.80;99.90;;;;;;2614358;54;20151;-72
2022/10/06 01:06:59;;;;;;;6.63;2.53;;;13.80;99.90;;;;;;2614130;54;20399;-73
2022/10/06 01:12:47;;;;;;;4.00;2.60;;;13.70;99.90;;;;;;2615134;54;20511;-73
2022/10/06 01:18:38;;;;;;;6.35;2.13;;;13.60;99.90;;;;;;2612718;54;20762;-73
2022/10/06 01:24:27;;;;;;;10.50;3.10;;;13.60;99.90;;;;;;2613922;54;20367;-74
2022/10/06 01:30:17;;;;;;;8.33;2.30;;;13.60;99.90;;;;;;2614083;54;20973;-72
2022/10/06 01:36:05;;;;;;;6.07;2.57;;;13.60;99.90;;;;;;2615457;54;20593;-74
2022/10/06 01:41:53;;;;;;;2.80;2.40;;;13.50;99.90;;;;;;2615051;54;20122;-73
2022/10/06 01:47:41;;;;;;;7.17;2.67;;;13.60;99.90;;;;;;2613505;54;20391;-72
2022/10/06 01:53:29;;;;;;;12.57;2.92;;;13.70;99.90;;;;;;2615601;39;20520;-73
2022/10/06 01:59:16;;;;;;;2.57;2.00;;;13.60;99.90;;;;;;2614901;54;20135;-72
2022/10/06 02:05:05;;;;;;;3.87;2.87;;;13.50;99.90;;;;;;2614402;54;20158;-72
2022/10/06 02:10:52;;;;;;;3.97;3.47;;;13.70;99.90;;;;;;2615167;54;20134;-72
2022/10/06 02:16:42;;;;;;;11.83;3.37;;;13.60;99.90;;;;;;2615338;54;20243;-72
2022/10/06 02:22:30;;;;;;;6.10;2.90;;;13.40;99.90;;;;;;2613922;54;20394;-73
2022/10/06 02:28:19;;;;;;;5.10;2.40;;;13.40;99.90;;;;;;2615617;54;20925;-74
2022/10/06 02:31:43;;;;;;;5.60;2.80;;;13.40;99.90;;;;;;2613917;54;20412;-73
2022/10/06 02:34:09;;;;;;;7.90;2.72;;;13.40;99.90;;;;;;2613637;54;20423;-72
2022/10/06 02:39:57;;;;;;;10.77;3.43;;;13.40;99.90;;;;;;2614135;54;20146;-73
2022/10/06 02:45:55;;;;;;;6.68;3.50;;;13.40;99.90;;;;;;2614296;54;20266;-73
2022/10/06 02:51:43;;;;;;;7.80;2.53;;;13.40;99.90;;;;;;2615092;54;20395;-72
2022/10/06 02:57:31;;;;;;;5.10;3.13;;;13.40;99.90;;;;;;2614917;54;20655;-71
2022/10/06 03:03:19;;;;;;;10.95;3.35;;;13.20;99.90;;;;;;2617297;39;20789;-75
2022/10/06 03:09:08;;;;;;;6.50;2.50;;;13.20;99.90;;;;;;2616496;54;20222;-76
2022/10/06 03:14:56;;;;;;;6.75;2.70;;;13.20;99.90;;;;;;2616386;54;20391;-75
2022/10/06 03:20:43;;;;;;;5.10;2.40;;;12.90;99.90;;;;;;2616810;54;20166;-75
2022/10/06 03:26:34;;;;;;;8.90;2.83;;;12.90;99.90;;;;;;2616593;39;20541;-74
2022/10/06 03:36:16;;;;;;;8.43;3.10;;;12.90;99.90;;;;;;2616268;54;20426;-74
2022/10/06 03:42:04;;;;;;;8.90;6.20;;;12.90;99.90;;;;;;2616511;54;20399;-74
2022/10/06 03:47:54;;;;;;;6.05;3.50;;;12.80;99.90;;;;;;2618008;54;20126;-74
2022/10/06 03:53:46;;;;;;;6.28;2.97;;;12.70;99.90;;;;;;2617182;46;20515;-74
2022/10/06 03:56:49;;;;;;;9.70;4.00;;;12.80;99.90;;;;;;2616948;47;20290;-75
2022/10/06 03:59:16;;;;;;;10.97;3.70;;;12.60;99.90;;;;;;2617656;54;20445;-73
2022/10/06 04:05:04;;;;;;;9.33;3.23;;;12.60;99.90;;;;;;2617224;54;20423;-75
2022/10/06 04:10:52;;;;;;;10.00;3.83;;;12.50;99.90;;;;;;2617447;54;20250;-75
2022/10/06 04:16:44;;;;;;;6.70;4.10;;;12.50;99.90;;;;;;2617421;54;20141;-74
2022/10/06 04:22:32;;;;;;;7.13;3.13;;;12.50;99.90;;;;;;2617266;54;20407;-74
2022/10/06 04:28:20;;;;;;;5.35;3.35;;;12.40;99.90;;;;;;2617165;54;20126;-73
2022/10/06 04:31:43;;;;;;;10.37;4.10;;;12.40;99.90;;;;;;2616914;54;20179;-75
2022/10/06 04:34:12;;;;;;;6.83;3.10;;;12.30;99.90;;;;;;2616290;47;20162;-73
2022/10/06 04:40:00;;;;;;;6.77;3.97;;;12.30;99.90;;;;;;2617039;54;20411;-73
2022/10/06 04:52:02;;;;;;;4.67;3.30;;;12.20;99.90;;;;;;2616540;54;20387;-75
2022/10/06 04:57:49;;;;;;;11.53;2.87;;;12.10;99.90;;;;;;2617361;54;20599;-75
2022/10/06 05:03:37;;;;;;;16.55;3.90;;;12.00;99.90;;;;;;2617520;39;20510;-74
2022/10/06 05:09:25;;;;;;;12.07;3.07;;;11.90;99.90;;;;;;2617532;54;20126;-75
2022/10/06 05:15:14;;;;;;;10.00;3.40;;;12.00;99.90;;;;;;2618020;39;20480;-75
2022/10/06 05:17:40;;;;;;;9.17;3.40;;;11.90;99.90;;;;;;2615224;47;20434;-78
2022/10/06 05:20:06;;;;;;;12.40;4.73;;;12.00;99.90;;;;;;2614826;54;20947;-75
2022/10/06 05:25:55;;;;;;;8.53;3.10;;;11.90;99.90;;;;;;2616798;46;20546;-76
2022/10/06 05:31:44;;;;;;;10.63;3.80;;;11.90;99.90;;;;;;2614486;54;20415;-77
2022/10/06 05:37:31;;;;;;;13.53;3.63;;;11.90;99.90;;;;;;2616422;54;20375;-78
2022/10/06 05:43:19;;;;;;;7.37;3.00;;;11.90;99.90;;;;;;2616047;54;20134;-80
2022/10/06 05:49:09;;;;;;;9.68;3.65;;;11.80;99.90;;;;;;2616863;54;20134;-76
2022/10/06 05:54:56;;;;;;;11.70;3.77;;;11.80;99.90;;;;;;2616710;54;20438;-76
2022/10/06 06:00:44;;;;;;;9.60;3.87;;;11.80;99.90;;;;;;2615772;54;20181;-75
2022/10/06 06:06:41;;;;;;;13.87;3.67;;;11.80;99.90;;;;;;2615289;54;20410;-75
2022/10/06 06:12:28;;;;;;;12.70;4.33;;;11.90;99.90;;;;;;2614598;54;20484;-73
2022/10/06 06:18:16;;;;;;;7.30;3.87;;;11.70;99.90;;;;;;2615593;54;20727;-75
2022/10/06 06:24:04;;;;;;;13.53;4.93;;;11.80;99.90;;;;;;2614263;54;20150;-77
2022/10/06 06:29:52;;;;;;;19.00;5.65;;;11.90;99.90;;;;;;2616255;54;20933;-77
2022/10/06 06:39:05;;;;;;;11.35;4.93;;;11.90;99.90;;;;;;2614929;54;20738;-74
2022/10/06 06:44:53;;;;;;;8.43;3.60;;;12.00;99.90;;;;;;2616163;54;20366;-76
2022/10/06 06:50:42;;;;;;;9.20;3.13;;;12.20;99.90;;;;;;2615784;54;20418;-76
2022/10/06 06:56:33;;;;;;;10.10;4.30;;;13.30;99.90;;;;;;2615092;54;20958;-76
2022/10/06 07:02:28;;;;;;;7.83;4.20;;;14.30;99.90;;;;;;2615045;54;20202;-77
2022/10/06 07:08:19;;;;;;;8.57;4.27;;;14.70;99.90;;;;;;2615517;54;20438;-75
2022/10/06 07:14:11;;;;;;;9.60;4.70;;;15.50;99.90;;;;;;2614513;54;20133;-77
2022/10/06 07:26:06;;;;;;;11.57;4.30;;;15.50;99.90;;;;;;2616245;54;20948;-76
2022/10/06 07:31:53;;;;;;;11.33;4.53;;;15.70;97.80;;;;;;2615337;54;20391;-76
2022/10/06 07:41:55;;;;;;;9.53;4.63;;;15.50;99.90;;;;;;2613642;54;20395;-76
2022/10/06 07:47:42;;;;;;;11.77;4.43;;;15.30;96.90;;;;;;2613843;54;20594;-77
2022/10/06 07:53:30;;;;;;;13.60;5.80;;;15.50;96.50;;;;;;2613166;54;20139;-77
2022/10/06 07:59:17;;;;;;;9.07;5.00;;;15.80;94.70;;;;;;2613320;54;20139;-77
2022/10/06 08:05:05;;;;;;;14.40;5.07;;;15.50;94.00;;;;;;2614507;54;20684;-76
2022/10/06 08:10:55;;;;;;;10.20;4.83;;;16.60;76.40;;;;;;2614642;54;20988;-78
2022/10/06 08:16:43;;;;;;;22.63;5.80;;;16.90;81.10;;;;;;2616194;54;20459;-77
2022/10/06 08:22:32;;;;;;;12.02;5.00;;;16.70;73.80;;;;;;2616745;54;20624;-76
2022/10/06 08:28:21;;;;;;;11.47;4.63;;;16.50;77.00;;;;;;2616149;54;20375;-75
2022/10/06 08:34:09;;;;;;;8.77;4.43;;;16.70;75.50;;;;;;2616822;54;20406;-76
2022/10/06 08:39:57;;;;;;;11.77;4.67;;;17.30;61.20;;;;;;2616416;54;20972;-76
2022/10/06 08:45:46;;;;;;;16.83;5.00;;;17.60;59.30;;;;;;2615964;39;20520;-76
2022/10/06 08:58:13;;;;;;;10.77;4.87;;;16.90;63.60;;;;;;2617385;39;20759;-74
2022/10/06 09:04:06;;;;;;;11.30;5.50;;;18.00;54.30;;;;;;2617281;39;20850;-77
2022/10/06 09:22:43;;;;;;;15.23;5.30;;;17.90;50.60;;;;;;2616232;54;20420;-75
2022/10/06 09:28:32;;;;;;;8.07;4.87;;;17.90;55.40;;;;;;2616029;54;20410;-76
2022/10/06 09:38:56;;;;;;;13.77;4.60;;;17.70;43.10;;;;;;2614998;54;20471;-78
2022/10/06 09:44:49;;;;;;;13.63;4.60;;;19.50;39.30;;;;;;2614528;54;20390;-76
2022/10/06 09:50:36;;;;;;;7.73;4.23;;;18.70;46.40;;;;;;2615093;54;21026;-77
2022/10/06 09:56:26;;;;;;;11.63;4.77;;;18.30;36.80;;;;;;2615372;54;20174;-76
2022/10/06 09:59:29;;;;;;;7.77;5.20;;;18.60;34.60;;;;;;2613089;54;20455;-76
2022/10/06 10:01:56;;;;;;;10.90;4.60;;;19.10;32.60;;;;;;2615141;46;20485;-77
2022/10/06 10:07:46;;;;;;;4.55;3.92;;;19.20;34.60;;;;;;2614870;54;20539;-77
2022/10/06 10:13:43;;;;;;;8.17;4.23;;;19.60;30.70;;;;;;2615863;54;20924;-78
2022/10/06 10:19:38;;;;;;;11.40;4.20;;;19.00;27.80;;;;;;2615426;54;21040;-77
2022/10/06 11:14:02;;;;;;;9.70;4.63;;;17.50;29.20;;;;;;2613836;54;20516;-75
2022/10/06 11:52:43;;;;;;;9.60;5.00;;;20.00;21.00;;;;;;2608687;54;20174;-79
2022/10/06 12:05:18;;;;;;;8.73;4.27;;;19.50;19.60;;;;;;2616129;54;20494;-77
2022/10/06 12:11:41;;;;;;;5.03;4.07;;;19.40;21.70;;;;;;2615904;54;20422;-77
2022/10/06 12:17:42;;;;;;;9.15;4.97;;;19.40;22.20;;;;;;2616535;54;20395;-76
2022/10/06 12:36:31;;;;;;;13.50;4.60;;;19.90;18.90;;;;;;2615895;54;20479;-79
2022/10/06 12:42:23;;;;;;;6.75;4.50;;;20.40;20.00;;;;;;2616843;39;20478;-80
2022/10/06 12:59:09;;;;;;;4.27;3.87;;;20.00;15.30;;;;;;2614866;54;20415;-79
2022/10/06 13:05:02;;;;;;;3.83;3.47;;;20.10;12.50;;;;;;2615555;46;22103;-78
2022/10/06 13:10:49;;;;;;;4.90;3.67;;;20.30;12.90;;;;;;2614454;54;20426;-76
2022/10/06 13:16:40;;;;;;;6.73;4.43;;;20.40;13.50;;;;;;2614701;46;20645;-77
2022/10/06 13:22:27;;;;;;;6.47;3.97;;;20.40;11.60;;;;;;2602116;54;21091;-76
2022/10/06 13:35:02;;;;;;;7.47;4.60;;;20.80;11.80;;;;;;2614627;54;20375;-76
2022/10/06 13:41:17;;;;;;;10.32;4.03;;;20.70;11.80;;;;;;2614845;39;20803;-77
2022/10/06 13:47:06;;;;;;;5.67;4.13;;;21.10;11.20;;;;;;2613479;54;20406;-78
2022/10/06 13:52:54;;;;;;;10.27;3.87;;;20.50;11.40;;;;;;2613262;54;20390;-77
2022/10/06 13:58:41;;;;;;;6.90;3.90;;;20.70;11.20;;;;;;2613596;54;21014;-77
2022/10/06 14:04:29;;;;;;;6.73;4.60;;;21.40;11.30;;;;;;2614135;54;20158;-77
2022/10/06 14:17:02;;;;;;;5.53;4.13;;;21.50;9.50;;;;;;2613921;54;20397;-78
2022/10/06 14:22:49;;;;;;;6.27;3.83;;;21.40;10.70;;;;;;2614041;54;20428;-77
2022/10/06 14:28:38;;;;;;;11.60;3.70;;;22.30;11.00;;;;;;2614107;54;20213;-77
2022/10/06 14:34:27;;;;;;;6.10;3.97;;;22.30;9.20;;;;;;2614676;39;20798;-81
2022/10/06 14:43:36;;;;;;;6.73;4.70;;;22.70;11.30;;;;;;2613610;54;20151;-77
2022/10/06 14:49:25;;;;;;;5.30;4.20;;;21.90;10.80;;;;;;2614624;54;20221;-78
2022/10/06 14:55:13;;;;;;;9.87;4.37;;;23.10;11.60;;;;;;2615757;39;20877;-76
2022/10/06 15:01:06;;;;;;;8.13;3.80;;;21.00;13.20;;;;;;2614969;54;20255;-77
2022/10/06 15:13:01;;;;;;;5.13;3.47;;;22.50;11.60;;;;;;2615569;54;20412;-79
2022/10/06 15:18:51;;;;;;;9.53;4.63;;;21.90;12.50;;;;;;2615074;39;20599;-76
2022/10/06 15:24:39;;;;;;;8.40;4.10;;;22.10;12.90;;;;;;2615028;54;20531;-76
2022/10/06 15:30:27;;;;;;;7.63;3.80;;;21.30;12.70;;;;;;2615091;54;20151;-77
2022/10/06 15:36:20;;;;;;;7.10;3.87;;;20.60;13.70;;;;;;2614906;54;20170;-78
2022/10/06 15:42:24;;;;;;;7.53;4.00;;;19.30;14.80;;;;;;2614256;54;20550;-79
2022/10/06 15:48:12;;;;;;;5.93;4.03;;;19.20;13.90;;;;;;2614118;54;20439;-77
2022/10/06 15:53:59;;;;;;;5.97;4.10;;;18.50;14.70;;;;;;2612942;39;20531;-77
2022/10/06 15:59:47;;;;;;;7.53;3.40;;;19.00;15.70;;;;;;2612645;54;21446;-77
2022/10/06 16:11:40;;;;;;;7.27;3.87;;;19.40;16.90;;;;;;2613873;39;20812;-77
2022/10/06 16:20:54;;;;;;;9.10;3.58;;;18.60;16.30;;;;;;2615681;54;20399;-77
2022/10/06 16:26:42;;;;;;;6.93;4.03;;;18.00;17.10;;;;;;2615787;54;20137;-77
2022/10/06 16:32:30;;;;;;;4.90;4.03;;;16.90;18.90;;;;;;2615553;54;20139;-77
2022/10/06 16:38:17;;;;;;;4.83;4.27;;;16.60;20.20;;;;;;2615385;54;21128;-76
2022/10/06 16:44:05;;;;;;;8.03;3.50;;;16.00;22.60;;;;;;2614617;54;20142;-76
2022/10/06 16:49:54;;;;;;;7.80;3.37;;;15.60;25.10;;;;;;2614088;54;20243;-76
2022/10/06 16:55:41;;;;;;;7.50;4.07;;;15.30;26.00;;;;;;2615568;54;20419;-77
2022/10/06 17:01:33;;;;;;;4.13;3.77;;;15.00;27.60;;;;;;2615184;54;20789;-77
2022/10/06 17:07:21;;;;;;;6.77;3.67;;;14.80;31.20;;;;;;2616214;54;20399;-76
2022/10/06 17:13:08;;;;;;;8.13;3.70;;;14.60;34.10;;;;;;2615946;54;20135;-77
2022/10/06 17:18:57;;;;;;;7.20;4.40;;;14.30;40.50;;;;;;2615762;54;20655;-76
2022/10/06 17:24:45;;;;;;;4.80;3.40;;;13.90;48.70;;;;;;2614882;54;20134;-77
2022/10/06 17:30:32;;;;;;;8.25;5.68;;;13.80;50.70;;;;;;2616519;54;20150;-76
2022/10/06 17:36:23;;;;;;;7.33;6.10;;;13.50;59.50;;;;;;2615003;54;20125;-76
2022/10/06 17:41:54;;;;;;;4.37;4.00;;;13.30;70.40;;;;;;2617126;31;20798;-76
2022/10/06 17:47:42;;;;;;;12.30;6.25;;;13.00;85.20;;;;;;2611726;54;20146;-71
2022/10/06 17:53:30;;;;;;;7.07;5.40;;;12.70;93.40;;;;;;2615151;54;20154;-72
2022/10/06 17:59:24;;;;;;;6.27;4.03;;;12.80;91.10;;;;;;2614745;54;20138;-70
2022/10/06 18:05:12;;;;;;;5.40;4.33;;;12.60;91.80;;;;;;2610763;54;20454;-73
2022/10/06 18:17:06;;;;;;;10.97;4.47;;;12.20;99.90;;;;;;2614210;54;20411;-71
2022/10/06 18:22:54;;;;;;;6.60;4.87;;;11.90;99.90;;;;;;2614795;54;20165;-70
2022/10/06 18:28:46;;;;;;;9.97;5.23;;;11.70;99.90;;;;;;2614854;54;20129;-71
2022/10/06 18:34:35;;;;;;;6.43;4.50;;;11.60;99.90;;;;;;2614052;54;20430;-71
2022/10/06 18:40:22;;;;;;;5.40;4.90;;;11.60;99.90;;;;;;2612367;54;20442;-72
2022/10/06 18:52:20;;;;;;;6.70;5.40;;;11.30;99.90;;;;;;2614809;54;20407;-71
2022/10/06 18:58:08;;;;;;;7.50;5.27;;;11.20;99.90;;;;;;2613650;54;20555;-72
2022/10/06 19:03:58;;;;;;;9.37;5.23;;;10.80;99.90;;;;;;2614466;54;20386;-70
2022/10/06 19:09:46;;;;;;;10.97;5.37;;;10.60;99.90;;;;;;2614810;54;20430;-70
2022/10/06 19:15:34;;;;;;;11.90;5.28;;;10.40;99.90;;;;;;2615120;39;21175;-71
2022/10/06 19:21:21;;;;;;;9.73;6.47;;;10.10;99.90;;;;;;2614037;54;20165;-71
2022/10/06 19:27:15;;;;;;;8.50;6.10;;;10.10;99.90;;;;;;2613884;54;20134;-71
2022/10/06 19:33:03;;;;;;;8.07;6.20;;;9.90;99.90;;;;;;2614068;54;20383;-72
2022/10/06 19:38:52;;;;;;;9.18;5.65;;;9.80;99.90;;;;;;2614811;54;20541;-73
2022/10/06 19:44:41;;;;;;;7.57;5.40;;;9.80;99.90;;;;;;2614827;54;20427;-71
2022/10/06 19:50:29;;;;;;;11.03;5.50;;;9.80;99.90;;;;;;2614568;54;20473;-75
2022/10/06 19:56:19;;;;;;;11.10;6.10;;;9.80;99.90;;;;;;2612149;54;20134;-74
2022/10/06 20:02:08;;;;;;;9.27;6.90;;;9.90;99.90;;;;;;2613568;54;20395;-73
2022/10/06 20:07:56;;;;;;;11.63;6.43;;;9.90;99.90;;;;;;2614546;54;20125;-73
2022/10/06 20:13:44;;;;;;;12.93;6.75;;;9.80;99.90;;;;;;2614952;54;20654;-72
2022/10/06 20:19:33;;;;;;;14.63;6.80;;;9.70;99.90;;;;;;2611550;54;20122;-74
2022/10/06 20:25:21;;;;;;;12.90;5.73;;;9.70;99.90;;;;;;2614180;39;20744;-72
2022/10/06 20:41:47;;;;;;;8.53;5.47;;;9.30;99.90;;;;;;2614140;54;20422;-73
2022/10/06 20:47:34;;;;;;;8.57;5.43;;;9.20;99.90;;;;;;2614369;54;20500;-73
2022/10/06 21:02:56;;;;;;;7.20;5.20;;;9.40;99.90;;;;;;2613553;54;20372;-72
2022/10/06 21:08:45;;;;;;;9.32;5.45;;;9.10;99.90;;;;;;2610961;54;20218;-72
2022/10/06 21:14:36;;;;;;;13.80;5.57;;;9.30;99.90;;;;;;2615916;54;20391;-71
2022/10/06 21:20:24;;;;;;;13.97;6.03;;;9.50;99.90;;;;;;2614751;54;20433;-72
2022/10/06 21:26:14;;;;;;;6.77;5.50;;;9.20;99.90;;;;;;2614132;54;20410;-72
2022/10/06 21:32:02;;;;;;;11.43;5.97;;;9.10;99.90;;;;;;2614891;54;20126;-71
2022/10/06 21:37:50;;;;;;;9.47;5.57;;;9.10;99.90;;;;;;2614767;54;20157;-71
2022/10/06 21:43:38;;;;;;;9.40;6.70;;;9.00;99.90;;;;;;2614698;39;20915;-72
2022/10/06 21:49:27;;;;;;;9.63;7.18;;;8.70;99.90;;;;;;2615214;54;20159;-72
2022/10/06 21:55:14;;;;;;;13.35;5.57;;;8.90;99.90;;;;;;2615419;54;20387;-72
2022/10/06 22:01:07;;;;;;;15.13;6.43;;;8.90;99.90;;;;;;2614571;54;20182;-73
2022/10/06 22:06:54;;;;;;;15.40;5.80;;;8.70;99.90;;;;;;2615070;31;20898;-75
2022/10/06 22:12:42;;;;;;;10.37;5.13;;;8.60;99.90;;;;;;2615385;39;20574;-73
2022/10/06 22:18:34;;;;;;;11.03;5.80;;;8.80;99.90;;;;;;2614979;54;20129;-72
2022/10/06 22:24:22;;;;;;;12.17;4.90;;;8.60;99.90;;;;;;2614081;54;20426;-71
2022/10/06 22:30:10;;;;;;;11.53;5.30;;;8.40;99.90;;;;;;2615119;54;20426;-73
2022/10/06 22:35:58;;;;;;;6.77;4.43;;;8.40;99.90;;;;;;2614950;54;20138;-72
2022/10/06 22:39:18;;;;;;;15.50;5.20;;;8.40;99.90;;;;;;2614810;54;20423;-73
2022/10/06 22:41:44;;;;;;;10.90;4.77;;;8.20;99.90;;;;;;2614599;54;20453;-72
2022/10/06 22:47:31;;;;;;;11.33;5.60;;;8.30;99.90;;;;;;2615415;54;20650;-71
2022/10/06 22:53:22;;;;;;;6.53;5.10;;;8.10;99.90;;;;;;2614732;54;20756;-73
2022/10/06 22:59:10;;;;;;;8.13;4.43;;;8.40;99.90;;;;;;2614979;54;20401;-70
2022/10/06 23:04:57;;;;;;;10.23;4.87;;;8.60;99.90;;;;;;2615436;54;20173;-71
2022/10/06 23:10:45;;;;;;;12.37;6.23;;;8.60;99.90;;;;;;2615270;54;20382;-73
2022/10/06 23:16:33;;;;;;;12.00;5.63;;;8.20;99.90;;;;;;2614280;54;20178;-72
2022/10/06 23:22:21;;;;;;;9.73;4.53;;;8.70;99.90;;;;;;2614434;54;20386;-71
2022/10/06 23:28:08;;;;;;;4.97;4.20;;;8.70;99.90;;;;;;2615510;54;20246;-70
2022/10/06 23:33:56;;;;;;;6.30;4.87;;;8.60;99.90;;;;;;2615158;54;20654;-72
2022/10/06 23:43:50;;;;;;;9.27;5.40;;;8.20;99.90;;;;;;2614455;54;21017;-72
2022/10/06 23:49:40;;;;;;;9.45;6.15;;;8.20;99.90;;;;;;2614394;54;20425;-73
2022/10/06 23:55:27;;;;;;;12.90;5.20;;;8.20;99.90;;;;;;2614241;54;20421;-71
